createdAt,value
2019-05-14T00:01:51.412Z,7.08
2019-05-14T00:06:55.095Z,6.62
2019-05-14T00:12:02.267Z,7.70
2019-05-14T00:17:05.957Z,9.93
2019-05-14T00:22:11.649Z,7.33
2019-05-14T00:27:18.371Z,9.25
2019-05-14T00:32:24.490Z,8.63
2019-05-14T00:37:32.178Z,8.88
2019-05-14T00:42:36.848Z,8.33
2019-05-14T00:47:41.938Z,8.08
2019-05-14T00:52:51.489Z,7.28
2019-05-14T00:57:56.804Z,8.90
2019-05-14T01:03:02.186Z,7.17
2019-05-14T01:08:07.335Z,9.38
2019-05-14T01:13:12.171Z,10.08
2019-05-14T01:18:16.598Z,11.73
2019-05-14T01:23:21.728Z,10.70
2019-05-14T01:28:27.317Z,9.48
2019-05-14T01:33:32.078Z,12.03
2019-05-14T01:38:36.786Z,10.53
2019-05-14T01:43:42.884Z,12.15
2019-05-14T01:48:47.408Z,10.90
2019-05-14T01:53:52.229Z,11.33
2019-05-14T01:58:58.569Z,13.78
2019-05-14T02:04:03.194Z,12.50
2019-05-14T02:09:11.169Z,12.10
2019-05-14T02:14:17.355Z,9.60
2019-05-14T02:19:23.569Z,13.13
2019-05-14T02:24:28.126Z,12.63
2019-05-14T02:29:32.644Z,12.30
2019-05-14T02:34:40.027Z,11.78
2019-05-14T02:39:45.283Z,14.18
2019-05-14T02:44:49.938Z,14.30
2019-05-14T02:49:58.759Z,16.37
2019-05-14T02:55:04.580Z,13.20
2019-05-14T03:00:10.632Z,14.80
2019-05-14T03:05:19.293Z,12.82
2019-05-14T03:10:23.177Z,17.90
2019-05-14T03:15:30.221Z,15.85
2019-05-14T03:20:39.353Z,12.05
2019-05-14T03:25:49.141Z,16.00
2019-05-14T03:30:53.428Z,16.57
2019-05-14T03:36:07.483Z,13.25
2019-05-14T03:41:09.102Z,17.15
2019-05-14T03:46:13.985Z,15.78
2019-05-14T03:51:31.954Z,16.02
2019-05-14T03:56:39.423Z,18.70
2019-05-14T04:01:43.106Z,14.93
2019-05-14T04:06:49.846Z,15.85
2019-05-14T04:11:59.223Z,15.65
2019-05-14T04:17:13.790Z,18.25
2019-05-14T04:22:19.000Z,18.10
2019-05-14T04:27:25.376Z,17.45
2019-05-14T04:32:31.614Z,22.50
2019-05-14T04:37:39.934Z,21.97
2019-05-14T04:42:44.463Z,17.30
2019-05-14T04:47:49.786Z,19.52
2019-05-14T04:53:05.383Z,19.92
2019-05-14T04:58:03.309Z,19.02
2019-05-14T05:03:12.600Z,19.02
2019-05-14T05:08:15.309Z,18.62
2019-05-14T05:13:19.699Z,20.52
2019-05-14T05:18:24.117Z,18.52
2019-05-14T05:23:28.543Z,19.02
2019-05-14T05:28:32.926Z,18.48
2019-05-14T05:33:38.346Z,16.20
2019-05-14T05:38:43.032Z,17.05
2019-05-14T05:43:48.360Z,20.02
2019-05-14T05:49:00.799Z,18.23
2019-05-14T05:54:24.508Z,17.52
2019-05-14T05:59:29.392Z,21.93
2019-05-14T06:04:35.616Z,18.98
2019-05-14T06:09:40.000Z,16.67
2019-05-14T06:14:44.389Z,16.17
2019-05-14T06:19:48.881Z,15.40
2019-05-14T06:24:53.267Z,17.80
2019-05-14T06:29:58.328Z,19.75
2019-05-14T06:35:04.389Z,12.85
2019-05-14T06:40:09.792Z,14.85
2019-05-14T06:45:14.280Z,15.65
2019-05-14T06:50:19.073Z,15.68
2019-05-14T06:55:23.673Z,12.45
2019-05-14T07:00:28.788Z,18.35
2019-05-14T07:05:35.070Z,17.35
2019-05-14T07:10:39.667Z,19.20
2019-05-14T07:15:44.647Z,15.05
2019-05-14T07:20:49.049Z,14.45
2019-05-14T07:25:53.444Z,17.73
2019-05-14T07:30:59.371Z,14.30
2019-05-14T07:36:04.026Z,12.75
2019-05-14T07:41:09.158Z,14.75
2019-05-14T07:46:13.915Z,12.53
2019-05-14T07:51:19.091Z,12.58
2019-05-14T07:56:23.792Z,7.05
2019-05-14T08:01:28.411Z,6.65
2019-05-14T08:06:32.851Z,10.60
2019-05-14T08:11:38.724Z,9.88
2019-05-14T08:16:43.423Z,12.07
2019-05-14T08:21:48.179Z,10.90
2019-05-14T08:26:52.757Z,11.95
2019-05-14T08:31:58.331Z,10.63
2019-05-14T08:37:04.304Z,13.55
2019-05-14T08:42:09.006Z,12.78
2019-05-14T08:47:13.851Z,14.45
2019-05-14T08:52:19.195Z,11.00
2019-05-14T08:57:23.947Z,12.18
2019-05-14T09:02:28.702Z,9.43
2019-05-14T09:07:33.209Z,9.00
2019-05-14T09:12:38.837Z,8.98
2019-05-14T09:17:43.512Z,10.08
2019-05-14T09:22:48.984Z,9.78
2019-05-14T09:27:53.673Z,7.90
2019-05-14T09:32:59.421Z,9.23
2019-05-14T09:38:04.062Z,8.75
2019-05-14T09:43:09.193Z,9.15
2019-05-14T09:48:13.785Z,6.45
2019-05-14T09:53:18.274Z,8.50
2019-05-14T09:58:22.662Z,8.73
2019-05-14T10:03:27.287Z,8.88
2019-05-14T10:08:31.720Z,5.95
2019-05-14T10:13:36.124Z,6.87
2019-05-14T10:18:40.510Z,7.62
2019-05-14T10:23:45.091Z,7.33
2019-05-14T10:28:49.560Z,8.58
2019-05-14T10:33:54.022Z,8.28
2019-05-14T10:38:59.084Z,7.28
2019-05-14T10:44:03.551Z,9.18
2019-05-14T10:49:19.946Z,6.20
2019-05-14T10:54:23.658Z,6.15
2019-05-14T10:59:20.455Z,6.12
2019-05-14T11:04:24.863Z,7.20
2019-05-14T11:09:29.285Z,9.25
2019-05-14T11:14:33.828Z,7.03
2019-05-14T11:19:38.998Z,6.47
2019-05-14T11:25:03.506Z,8.15
2019-05-14T11:30:09.116Z,7.87
2019-05-14T11:35:13.913Z,8.75
2019-05-14T11:40:19.969Z,8.40
2019-05-14T11:45:26.358Z,9.00
2019-05-14T11:50:30.802Z,8.90
2019-05-14T11:55:35.262Z,8.65
2019-05-14T12:00:39.722Z,7.35
2019-05-14T12:05:44.216Z,8.40
2019-05-14T12:10:48.656Z,10.45
2019-05-14T12:15:53.090Z,8.75
2019-05-14T12:20:59.420Z,11.73
2019-05-14T12:26:03.734Z,8.35
2019-05-14T12:31:09.381Z,9.00
2019-05-14T12:36:14.058Z,8.45
2019-05-14T12:41:19.415Z,10.15
2019-05-14T12:46:24.079Z,6.72
2019-05-14T12:51:28.589Z,7.85
2019-05-14T12:56:33.062Z,7.00
2019-05-14T13:01:37.476Z,7.45
2019-05-14T13:06:41.929Z,8.50
2019-05-14T13:11:48.043Z,7.37
2019-05-14T13:16:54.564Z,8.55
2019-05-14T13:22:13.076Z,8.93
2019-05-14T13:27:05.368Z,7.85
2019-05-14T13:32:12.315Z,9.55
2019-05-14T13:37:16.052Z,8.70
2019-05-14T13:42:20.461Z,11.57
2019-05-14T13:47:25.245Z,8.33
2019-05-14T13:52:29.639Z,9.28
2019-05-14T13:57:34.016Z,8.85
2019-05-14T14:02:38.514Z,13.35
2019-05-14T14:07:44.840Z,10.88
2019-05-14T14:12:49.823Z,13.22
2019-05-14T14:17:54.524Z,10.80
2019-05-14T14:23:09.200Z,10.75
2019-05-14T14:28:05.118Z,12.78
2019-05-14T14:33:09.592Z,15.93
2019-05-14T14:38:14.038Z,16.82
2019-05-14T14:43:18.996Z,9.78
2019-05-14T14:48:23.654Z,9.48
2019-05-14T14:53:46.104Z,11.88
2019-05-14T14:58:34.172Z,9.78
2019-05-14T15:03:38.886Z,12.03
2019-05-14T15:08:43.330Z,10.43
2019-05-14T15:13:48.248Z,9.90
2019-05-14T15:18:52.958Z,9.48
2019-05-14T15:24:09.412Z,9.08
2019-05-14T15:29:03.752Z,11.25
2019-05-14T15:34:09.021Z,10.48
2019-05-14T15:39:13.633Z,12.47
2019-05-14T15:44:19.564Z,7.42
2019-05-14T15:49:25.331Z,7.05
2019-05-14T15:54:42.470Z,9.00
2019-05-14T15:59:35.935Z,9.43
2019-05-14T16:04:40.541Z,8.08
2019-05-14T16:09:44.970Z,7.42
2019-05-14T16:14:49.805Z,11.00
2019-05-14T16:19:54.294Z,7.62
2019-05-14T16:25:00.954Z,7.95
2019-05-14T16:30:09.429Z,10.40
2019-05-14T16:35:13.414Z,9.13
2019-05-14T16:40:19.195Z,9.65
2019-05-14T16:45:28.911Z,7.83
2019-05-14T16:50:33.554Z,6.95
2019-05-14T16:55:38.501Z,11.10
2019-05-14T17:00:43.118Z,8.30
2019-05-14T17:05:48.683Z,8.58
2019-05-14T17:10:53.240Z,10.25
2019-05-14T17:15:58.912Z,7.30
2019-05-14T17:21:04.981Z,9.60
2019-05-14T17:26:09.414Z,8.10
2019-05-14T17:31:13.844Z,8.53
2019-05-14T17:36:18.877Z,9.48
2019-05-14T17:41:23.625Z,17.57
2019-05-14T17:46:28.970Z,10.55
2019-05-14T17:51:33.672Z,8.75
2019-05-14T17:56:39.046Z,9.95
2019-05-14T18:01:44.846Z,10.98
2019-05-14T18:06:49.362Z,13.25
2019-05-14T18:11:53.819Z,10.00
2019-05-14T18:16:58.624Z,12.23
2019-05-14T18:22:03.214Z,22.42
2019-05-14T18:27:08.343Z,20.23
2019-05-14T18:32:12.981Z,16.60
2019-05-14T18:37:18.288Z,11.70
2019-05-14T18:42:22.956Z,10.30
2019-05-14T18:47:29.048Z,10.93
2019-05-14T18:52:35.482Z,11.43
2019-05-14T18:57:39.895Z,10.18
2019-05-14T19:02:44.253Z,10.20
2019-05-14T19:07:48.860Z,14.07
2019-05-14T19:12:54.125Z,18.50
2019-05-14T19:18:01.193Z,12.80
2019-05-14T19:23:04.618Z,23.65
2019-05-14T19:28:09.219Z,27.20
2019-05-14T19:33:13.704Z,20.65
2019-05-14T19:38:21.679Z,19.20
2019-05-14T19:43:31.572Z,12.80
2019-05-14T19:48:41.518Z,10.98
2019-05-14T19:53:54.849Z,13.72
2019-05-14T19:58:59.843Z,10.38
2019-05-14T20:04:31.111Z,12.25
2019-05-14T20:09:39.062Z,15.98
2019-05-14T20:14:44.675Z,12.40
2019-05-14T20:19:51.917Z,14.85
2019-05-14T20:25:11.551Z,9.03
2019-05-14T20:30:04.515Z,13.60
2019-05-14T20:35:10.543Z,11.43
2019-05-14T20:40:30.488Z,11.80
2019-05-14T20:45:38.949Z,13.03
2019-05-14T20:50:47.827Z,16.02
2019-05-14T20:55:54.084Z,10.75
2019-05-14T21:01:02.427Z,12.33
2019-05-14T21:06:09.050Z,16.57
2019-05-14T21:11:19.108Z,11.05
2019-05-14T21:16:28.416Z,11.73
2019-05-14T21:21:45.604Z,11.45
2019-05-14T21:26:51.861Z,12.45
2019-05-14T21:32:01.351Z,13.80
2019-05-14T21:37:06.181Z,10.18
2019-05-14T21:42:12.569Z,15.25
2019-05-14T21:47:22.488Z,13.95
2019-05-14T21:52:29.031Z,13.08
2019-05-14T21:57:37.924Z,12.28
2019-05-14T22:02:49.107Z,15.55
2019-05-14T22:07:53.102Z,11.12
2019-05-14T22:12:59.562Z,14.95
2019-05-14T22:18:14.931Z,14.15
2019-05-14T22:23:13.989Z,12.23
2019-05-14T22:28:19.062Z,10.18
2019-05-14T22:33:28.318Z,11.43
2019-05-14T22:38:32.632Z,15.90
2019-05-14T22:43:43.614Z,13.40
2019-05-14T22:48:51.266Z,12.10
2019-05-14T22:53:58.858Z,10.72
2019-05-14T22:59:03.445Z,11.78
2019-05-14T23:04:08.997Z,13.08
2019-05-14T23:09:18.447Z,13.03
2019-05-14T23:14:20.457Z,12.40
2019-05-14T23:19:25.234Z,14.20
2019-05-14T23:24:31.407Z,12.68
2019-05-14T23:29:39.405Z,13.98
2019-05-14T23:34:45.150Z,11.20
2019-05-14T23:39:51.056Z,12.93
2019-05-14T23:44:59.361Z,13.70
2019-05-14T23:50:04.211Z,13.18
2019-05-14T23:55:12.495Z,11.08
